Airport View

Enter AWOS ICAO identifier for current METAR.

ex. KFNL

KCMY 250030Z AUTO 17006KT 10SM CLR 25/17 A2985 RMK AO2 T02540171

25 May 2020 00:33

Frequency: 119.775

Phone: 608-269-0724

Other Area AWOS: KBCK - KVOK - KLSE - KY51

TAF AMD KVOK 221813Z 2218/2323 12006KT 9999 SCT015 OVC035 QNH2997INS BECMG 2310/2311 15009KT 9000 -DZ BKN010 OVC025 QNH2995INS BECMG 2314/2315 13009KT 8000 -SHRA BKN025 OVC035 QNH2986INS TX18/2221Z TN14/2312Z LAST NO AMDS AFT 2221 NEXT 2609